KJBR

Jonesboro Municipal Airport

Jonesboro, Arkansas, USA
METAR KJBR 191653Z AUTO 12007KT 10SM FEW023 SCT029 30/25 A2993 RMK AO2 SLP130 T03000250 $
Observed Flight Rules
Aug-19 @ 16:53 UTC (19 minutes ago) Visual Flight Rules
Wind Visibility Clouds
120° at 7 knots 10 miles
  • Few at 2,300' AGL
  • Scattered at 2,900' AGL
Temperatures Readings
Current 30°C / 86°F
Dewpoint 25°C / 77°F
Humidity 75%
Altimeter 29.93" Hg
Pressure 1013 hPa
Elevation 79
METAR KJBR 191653Z AUTO 12007KT 10SM FEW023 SCT029 30/25 A2993 RMK AO2 SLP130 T03000250 $
Observed Flight Rules
Aug-19 @ 16:53 UTC
(19 minutes ago)
VFR
Wind Visibility
120° at 7 knots 10 miles
Clouds
  • Few at 2,300' AGL
  • Scattered at 2,900' AGL
Temperature Dewpoint
30°C / 86°F 25°C / 77°F
Humidity Altimeter Pressure
75% 29.93" Hg 1013 hPa